createdAt,value
2018-04-12T00:02:17.365Z,15.36
2018-04-12T00:04:43.298Z,14.84
2018-04-12T00:07:09.246Z,14.95
2018-04-12T00:09:35.180Z,14.85
2018-04-12T00:12:01.148Z,14.57
2018-04-12T00:14:27.121Z,14.30
2018-04-12T00:16:53.060Z,14.38
2018-04-12T00:19:18.999Z,14.03
2018-04-12T00:21:44.943Z,14.58
2018-04-12T00:24:10.883Z,14.23
2018-04-12T00:26:36.861Z,13.98
2018-04-12T00:29:02.807Z,14.34
2018-04-12T00:31:28.767Z,14.09
2018-04-12T00:33:54.703Z,14.27
2018-04-12T00:36:20.693Z,14.35
2018-04-12T00:38:46.644Z,14.16
2018-04-12T00:41:12.585Z,14.36
2018-04-12T00:43:38.554Z,14.11
2018-04-12T00:46:04.493Z,14.52
2018-04-12T00:48:30.486Z,14.46
2018-04-12T00:50:56.431Z,14.03
2018-04-12T00:53:22.368Z,14.12
2018-04-12T00:55:48.314Z,14.32
2018-04-12T00:58:14.262Z,14.07
2018-04-12T01:00:40.236Z,14.18
2018-04-12T01:03:06.208Z,14.06
2018-04-12T01:05:32.177Z,14.27
2018-04-12T01:07:58.127Z,13.67
2018-04-12T01:10:24.116Z,13.93
2018-04-12T01:12:50.077Z,14.10
2018-04-12T01:15:16.046Z,14.03
2018-04-12T01:17:41.977Z,13.56
2018-04-12T01:20:08.264Z,13.43
2018-04-12T01:22:34.210Z,13.66
2018-04-12T01:25:00.135Z,13.81
2018-04-12T01:27:26.096Z,13.90
2018-04-12T01:29:52.046Z,14.08
2018-04-12T01:32:17.992Z,13.85
2018-04-12T01:34:43.925Z,13.51
2018-04-12T01:37:09.886Z,13.35
2018-04-12T01:39:35.833Z,13.86
2018-04-12T01:42:01.771Z,13.91
2018-04-12T01:44:27.815Z,13.62
2018-04-12T01:46:53.757Z,13.39
2018-04-12T01:49:19.699Z,13.65
2018-04-12T01:51:45.620Z,13.67
2018-04-12T01:54:11.564Z,13.96
2018-04-12T01:56:37.515Z,13.30
2018-04-12T01:59:03.477Z,13.62
2018-04-12T02:01:29.426Z,12.95
2018-04-12T02:03:55.380Z,13.68
2018-04-12T02:06:21.334Z,13.64
2018-04-12T02:08:47.313Z,13.86
2018-04-12T02:11:13.279Z,13.68
2018-04-12T02:13:39.233Z,13.05
2018-04-12T02:16:05.161Z,13.18
2018-04-12T02:18:31.110Z,13.53
2018-04-12T02:20:57.100Z,13.67
2018-04-12T02:23:23.064Z,13.41
2018-04-12T02:25:49.014Z,13.43
2018-04-12T02:28:14.942Z,12.68
2018-04-12T02:30:40.896Z,12.66
2018-04-12T02:33:06.858Z,13.06
2018-04-12T02:35:32.803Z,13.21
2018-04-12T02:37:58.823Z,13.51
2018-04-12T02:40:24.850Z,13.31
2018-04-12T02:42:50.786Z,13.35
2018-04-12T02:45:16.741Z,13.38
2018-04-12T02:47:42.700Z,13.34
2018-04-12T02:50:08.676Z,13.65
2018-04-12T02:52:34.640Z,13.41
2018-04-12T02:55:00.610Z,13.21
2018-04-12T02:57:26.597Z,13.48
2018-04-12T02:59:52.540Z,13.54
2018-04-12T03:02:18.508Z,13.36
2018-04-12T03:04:44.461Z,13.54
2018-04-12T03:07:11.210Z,13.18
2018-04-12T03:09:37.170Z,13.19
2018-04-12T03:12:03.102Z,13.68
2018-04-12T03:14:29.107Z,13.69
2018-04-12T03:16:55.057Z,13.44
2018-04-12T03:19:21.015Z,13.49
2018-04-12T03:21:46.949Z,13.36
2018-04-12T03:24:12.933Z,13.74
2018-04-12T03:26:38.884Z,13.80
2018-04-12T03:29:04.840Z,13.94
2018-04-12T03:31:30.765Z,13.63
2018-04-12T03:33:56.701Z,13.84
2018-04-12T03:36:22.630Z,13.70
2018-04-12T03:38:48.561Z,13.66
2018-04-12T03:41:14.523Z,13.26
2018-04-12T03:43:40.488Z,13.41
2018-04-12T03:46:06.436Z,13.41
2018-04-12T03:48:32.526Z,13.43
2018-04-12T03:50:58.455Z,13.54
2018-04-12T03:53:24.416Z,13.51
2018-04-12T03:55:50.337Z,13.88
2018-04-12T03:58:16.323Z,13.80
2018-04-12T04:00:42.270Z,13.75
2018-04-12T04:03:08.233Z,13.71
2018-04-12T04:05:34.189Z,13.28
2018-04-12T04:08:00.172Z,13.61
2018-04-12T04:10:26.121Z,13.50
2018-04-12T04:12:52.052Z,13.65
2018-04-12T04:15:18.025Z,13.87
2018-04-12T04:17:43.957Z,13.44
2018-04-12T04:20:09.928Z,13.13
2018-04-12T04:22:35.880Z,13.25
2018-04-12T04:25:01.834Z,13.58
2018-04-12T04:27:27.818Z,13.57
2018-04-12T04:29:53.793Z,13.42
2018-04-12T04:32:19.774Z,13.66
2018-04-12T04:34:45.724Z,13.79
2018-04-12T04:37:11.659Z,13.76
2018-04-12T04:39:37.636Z,13.90
2018-04-12T04:42:03.594Z,13.90
2018-04-12T04:44:29.521Z,13.62
2018-04-12T04:46:55.474Z,13.85
2018-04-12T04:49:21.443Z,14.04
2018-04-12T04:51:47.389Z,14.09
2018-04-12T04:54:13.344Z,13.77
2018-04-12T04:56:39.341Z,13.84
2018-04-12T04:59:05.288Z,14.08
2018-04-12T05:01:31.284Z,14.25
2018-04-12T05:03:57.234Z,14.28
2018-04-12T05:06:23.187Z,14.26
2018-04-12T05:08:49.126Z,14.53
2018-04-12T05:11:15.093Z,14.55
2018-04-12T05:13:41.101Z,14.64
2018-04-12T05:16:07.070Z,14.65
2018-04-12T05:18:33.039Z,14.55
2018-04-12T05:20:59.014Z,14.54
2018-04-12T05:23:24.991Z,14.47
2018-04-12T05:25:50.937Z,14.69
2018-04-12T05:30:51.934Z,14.88
2018-04-12T05:33:17.899Z,14.84
2018-04-12T05:35:43.884Z,14.81
2018-04-12T05:38:09.845Z,14.73
2018-04-12T05:40:35.818Z,14.83
2018-04-12T05:43:01.793Z,14.89
2018-04-12T05:45:27.761Z,14.97
2018-04-12T05:47:53.728Z,14.93
2018-04-12T05:50:19.685Z,15.06
2018-04-12T05:52:45.633Z,15.13
2018-04-12T05:55:11.624Z,15.06
2018-04-12T05:57:37.620Z,15.15
2018-04-12T06:00:03.563Z,15.18
2018-04-12T06:02:29.504Z,15.27
2018-04-12T06:04:55.435Z,15.31
2018-04-12T06:07:21.454Z,15.28
2018-04-12T06:09:47.357Z,15.30
2018-04-12T06:12:13.307Z,15.30
2018-04-12T06:14:39.259Z,15.39
2018-04-12T06:17:05.191Z,15.35
2018-04-12T06:19:31.137Z,15.37
2018-04-12T06:21:57.077Z,15.40
2018-04-12T06:24:23.054Z,15.47
2018-04-12T06:26:49.001Z,15.42
2018-04-12T06:29:14.940Z,15.47
2018-04-12T06:31:40.874Z,15.55
2018-04-12T06:34:06.801Z,15.58
2018-04-12T06:36:32.749Z,15.58
2018-04-12T06:38:58.691Z,15.57
2018-04-12T06:41:24.638Z,15.61
2018-04-12T06:43:50.601Z,15.62
2018-04-12T06:46:16.561Z,15.65
2018-04-12T06:48:42.564Z,15.54
2018-04-12T06:51:08.531Z,15.60
2018-04-12T06:53:34.502Z,15.64
2018-04-12T06:56:00.457Z,15.77
2018-04-12T06:58:26.480Z,15.88
2018-04-12T07:00:52.469Z,15.88
2018-04-12T07:03:18.426Z,15.95
2018-04-12T07:05:44.377Z,16.01
2018-04-12T07:08:10.323Z,16.12
2018-04-12T07:10:36.285Z,16.22
2018-04-12T07:13:02.242Z,16.41
2018-04-12T07:15:28.189Z,16.46
2018-04-12T07:17:54.121Z,16.43
2018-04-12T07:20:20.044Z,16.42
2018-04-12T07:22:46.026Z,16.49
2018-04-12T07:25:11.984Z,16.32
2018-04-12T07:27:37.913Z,16.44
2018-04-12T07:30:03.837Z,16.36
2018-04-12T07:32:29.796Z,16.45
2018-04-12T07:34:55.769Z,16.50
2018-04-12T07:37:21.721Z,16.53
2018-04-12T07:39:47.677Z,16.53
2018-04-12T07:42:13.677Z,16.61
2018-04-12T07:44:39.721Z,16.64
2018-04-12T07:47:05.686Z,16.61
2018-04-12T07:49:31.676Z,16.68
2018-04-12T07:51:57.644Z,16.71
2018-04-12T07:54:23.593Z,16.78
2018-04-12T07:56:49.543Z,16.87
2018-04-12T07:59:15.502Z,16.84
2018-04-12T08:01:41.463Z,16.83
2018-04-12T08:04:07.444Z,16.93
2018-04-12T08:06:33.368Z,17.02
2018-04-12T08:08:59.332Z,17.04
2018-04-12T08:11:25.264Z,17.11
2018-04-12T08:13:51.201Z,17.15
2018-04-12T08:16:17.204Z,17.17
2018-04-12T08:18:43.186Z,17.28
2018-04-12T08:21:09.160Z,17.30
2018-04-12T08:23:35.133Z,17.41
2018-04-12T08:26:01.085Z,17.56
2018-04-12T08:28:27.023Z,17.57
2018-04-12T08:30:53.013Z,17.64
2018-04-12T08:33:18.972Z,17.65
2018-04-12T08:35:44.898Z,17.65
2018-04-12T08:38:10.841Z,17.69
2018-04-12T08:40:36.788Z,17.67
2018-04-12T08:43:02.737Z,17.77
2018-04-12T08:45:28.698Z,17.77
2018-04-12T08:47:54.645Z,17.79
2018-04-12T08:50:20.585Z,17.81
2018-04-12T08:52:46.519Z,17.88
2018-04-12T08:55:12.518Z,17.90
2018-04-12T08:57:38.480Z,17.94
2018-04-12T09:00:04.430Z,17.96
2018-04-12T09:02:30.396Z,18.02
2018-04-12T09:04:56.356Z,18.08
2018-04-12T09:07:22.290Z,18.15
2018-04-12T09:09:49.272Z,18.26
2018-04-12T09:12:15.258Z,18.27
2018-04-12T09:14:41.177Z,18.27
2018-04-12T09:17:07.135Z,18.45
2018-04-12T09:19:33.207Z,18.59
2018-04-12T09:21:59.142Z,18.69
2018-04-12T09:24:25.091Z,18.78
2018-04-12T09:26:51.033Z,18.88
2018-04-12T09:29:16.993Z,19.03
2018-04-12T09:31:42.932Z,18.91
2018-04-12T09:34:08.869Z,18.98
2018-04-12T09:36:34.834Z,19.12
2018-04-12T09:39:00.872Z,19.09
2018-04-12T09:41:26.810Z,19.06
2018-04-12T09:43:52.771Z,19.19
2018-04-12T09:46:18.830Z,19.21
2018-04-12T09:48:44.706Z,19.31
2018-04-12T09:51:10.670Z,19.39
2018-04-12T09:53:38.653Z,19.50
2018-04-12T09:56:04.601Z,19.45
2018-04-12T09:58:30.534Z,19.47
2018-04-12T10:00:56.476Z,19.49
2018-04-12T10:03:22.402Z,19.52
2018-04-12T10:05:48.338Z,19.54
2018-04-12T10:08:14.367Z,19.56
2018-04-12T10:10:40.319Z,19.60
2018-04-12T10:13:06.257Z,19.64
2018-04-12T10:15:32.200Z,19.78
2018-04-12T10:17:58.148Z,19.76
2018-04-12T10:20:24.115Z,19.85
2018-04-12T10:22:50.093Z,19.91
2018-04-12T10:25:16.063Z,19.91
2018-04-12T10:27:43.089Z,20.00
2018-04-12T10:30:09.036Z,19.95
2018-04-12T10:32:34.980Z,19.98
2018-04-12T10:35:00.944Z,19.99
2018-04-12T10:37:26.944Z,20.03
2018-04-12T10:39:52.880Z,20.01
2018-04-12T10:42:18.932Z,20.05
2018-04-12T10:44:45.969Z,20.06
2018-04-12T10:47:11.917Z,20.01
2018-04-12T10:49:37.890Z,20.09
2018-04-12T10:52:03.856Z,20.16
2018-04-12T10:54:29.833Z,20.17
2018-04-12T10:56:55.776Z,20.18
2018-04-12T10:59:21.775Z,20.21
2018-04-12T11:01:47.703Z,20.20
2018-04-12T11:04:13.630Z,20.25
2018-04-12T11:06:39.616Z,20.31
2018-04-12T11:09:05.601Z,20.34
2018-04-12T11:11:31.552Z,20.44
2018-04-12T11:13:57.482Z,20.56
2018-04-12T11:16:23.404Z,20.52
2018-04-12T11:18:51.442Z,20.44
2018-04-12T11:21:17.410Z,20.55
2018-04-12T11:23:43.396Z,20.79
2018-04-12T11:26:09.326Z,20.67
2018-04-12T11:28:35.338Z,20.83
2018-04-12T11:31:01.246Z,20.71
2018-04-12T11:33:27.201Z,20.71
2018-04-12T11:35:53.150Z,20.85
2018-04-12T11:38:19.111Z,20.93
2018-04-12T11:40:45.057Z,21.03
2018-04-12T11:43:11.013Z,21.05
2018-04-12T11:45:36.966Z,20.99
2018-04-12T11:48:08.632Z,21.09
2018-04-12T11:50:34.615Z,21.21
2018-04-12T11:53:00.571Z,21.28
2018-04-12T11:55:26.533Z,21.07
2018-04-12T11:57:52.492Z,21.20
2018-04-12T12:00:18.456Z,21.21
2018-04-12T12:02:44.499Z,21.12
2018-04-12T12:05:10.434Z,21.30
2018-04-12T12:07:36.373Z,21.39
2018-04-12T12:10:02.326Z,21.36
2018-04-12T12:12:28.321Z,21.34
2018-04-12T12:14:54.271Z,21.29
2018-04-12T12:17:20.212Z,21.62
2018-04-12T12:19:46.162Z,21.62
2018-04-12T12:22:12.098Z,21.38
2018-04-12T12:24:38.388Z,21.58
2018-04-12T12:27:04.420Z,21.74
2018-04-12T12:29:30.376Z,21.51
2018-04-12T12:31:56.304Z,21.59
2018-04-12T12:34:22.248Z,21.53
2018-04-12T12:36:48.244Z,21.89
2018-04-12T12:39:14.190Z,21.99
2018-04-12T12:41:42.198Z,21.96
2018-04-12T12:44:08.166Z,21.94
2018-04-12T12:46:34.113Z,22.11
2018-04-12T12:49:00.122Z,21.94
2018-04-12T12:51:26.104Z,22.03
2018-04-12T12:53:52.034Z,22.00
2018-04-12T12:56:18.042Z,21.96
2018-04-12T12:58:43.996Z,21.97
2018-04-12T13:01:09.948Z,22.01
2018-04-12T13:03:35.925Z,21.93
2018-04-12T13:06:01.977Z,22.06
2018-04-12T13:08:27.931Z,22.09
2018-04-12T13:10:53.893Z,22.12
2018-04-12T13:18:25.256Z,22.11
2018-04-12T13:20:51.221Z,22.03
2018-04-12T13:23:17.153Z,22.14
2018-04-12T13:55:58.729Z,22.29
2018-04-12T13:58:24.672Z,22.44
2018-04-12T14:00:50.606Z,22.39
2018-04-12T14:05:48.937Z,22.52
2018-04-12T14:08:14.934Z,22.50
2018-04-12T14:10:40.956Z,22.10
2018-04-12T14:13:06.895Z,22.34
2018-04-12T14:15:32.864Z,22.35
2018-04-12T14:17:58.844Z,22.43
2018-04-12T14:20:24.761Z,22.60
2018-04-12T14:22:52.725Z,22.38
2018-04-12T14:25:18.647Z,22.60
2018-04-12T14:27:44.584Z,22.43
2018-04-12T14:30:10.521Z,22.36
2018-04-12T14:32:36.455Z,22.51
2018-04-12T14:35:02.417Z,22.56
2018-04-12T14:37:28.350Z,22.64
2018-04-12T14:39:54.324Z,22.40
2018-04-12T14:42:20.281Z,22.43
2018-04-12T14:44:46.229Z,22.36
2018-04-12T14:47:12.183Z,22.53
2018-04-12T14:54:44.568Z,22.38
2018-04-12T14:59:45.986Z,22.32
2018-04-12T15:02:11.916Z,22.24
2018-04-12T15:04:37.904Z,22.47
2018-04-12T15:12:11.118Z,22.47
2018-04-12T15:14:41.213Z,22.54
2018-04-12T15:17:07.237Z,22.48
2018-04-12T15:19:34.186Z,22.48
2018-04-12T15:22:04.428Z,22.49
2018-04-12T15:24:30.450Z,22.37
2018-04-12T15:26:58.390Z,22.33
2018-04-12T15:29:26.370Z,22.41
2018-04-12T15:31:53.561Z,22.37
2018-04-12T15:34:19.532Z,22.45
2018-04-12T15:36:46.480Z,22.37
2018-04-12T15:39:12.534Z,22.72
2018-04-12T15:41:40.617Z,22.73
2018-04-12T15:44:10.834Z,22.71
2018-04-12T15:46:37.970Z,22.76
2018-04-12T15:54:08.752Z,23.00
2018-04-12T15:56:34.761Z,22.65
2018-04-12T15:59:00.779Z,22.61
2018-04-12T16:01:26.702Z,22.52
2018-04-12T16:03:52.756Z,22.61
2018-04-12T16:06:18.743Z,22.51
2018-04-12T16:08:44.714Z,22.38
2018-04-12T16:11:10.650Z,23.04
2018-04-12T16:13:36.598Z,22.66
2018-04-12T16:16:02.550Z,22.67
2018-04-12T16:18:28.515Z,22.76
2018-04-12T16:26:01.591Z,22.27
2018-04-12T16:28:27.531Z,22.25
2018-04-12T16:30:59.204Z,22.05
2018-04-12T16:33:28.665Z,22.04
2018-04-12T16:35:58.377Z,21.95
2018-04-12T16:45:59.180Z,22.00
2018-04-12T16:48:25.191Z,21.98
2018-04-12T16:50:51.263Z,21.97
2018-04-12T16:55:50.444Z,22.07
2018-04-12T16:58:17.526Z,21.88
2018-04-12T17:00:44.574Z,21.98
2018-04-12T17:03:13.997Z,21.96
2018-04-12T17:05:41.017Z,21.84
2018-04-12T17:08:10.999Z,21.90
2018-04-12T17:10:38.090Z,21.98
2018-04-12T17:13:08.108Z,21.96
2018-04-12T17:15:34.099Z,21.93
2018-04-12T17:18:02.099Z,21.96
2018-04-12T17:28:05.995Z,21.79
2018-04-12T17:30:34.044Z,21.85
2018-04-12T17:33:04.566Z,21.71
2018-04-12T17:35:32.642Z,21.68
2018-04-12T17:37:58.618Z,21.72
2018-04-12T17:40:24.674Z,21.64
2018-04-12T17:42:50.745Z,21.65
2018-04-12T17:45:20.321Z,21.64
2018-04-12T17:47:50.657Z,21.55
2018-04-12T17:50:16.619Z,21.47
2018-04-12T17:52:43.672Z,21.57
2018-04-12T17:55:11.653Z,21.54
2018-04-12T17:57:37.702Z,21.50
2018-04-12T18:00:03.723Z,21.48
2018-04-12T18:02:29.762Z,21.48
2018-04-12T18:05:00.045Z,21.46
2018-04-12T18:07:25.986Z,21.62
2018-04-12T18:09:51.950Z,21.45
2018-04-12T18:12:17.933Z,21.50
2018-04-12T18:14:43.885Z,21.50
2018-04-12T18:17:09.819Z,21.37
2018-04-12T18:19:35.805Z,21.38
2018-04-12T18:22:02.871Z,21.41
2018-04-12T18:24:28.855Z,21.35
2018-04-12T18:26:54.821Z,21.37
2018-04-12T18:29:21.028Z,21.33
2018-04-12T18:31:46.979Z,21.32
2018-04-12T18:34:14.349Z,21.33
2018-04-12T18:36:40.442Z,21.30
2018-04-12T18:39:12.376Z,21.26
2018-04-12T18:41:38.329Z,21.25
2018-04-12T18:44:08.319Z,21.18
2018-04-12T18:46:34.286Z,21.18
2018-04-12T18:49:00.263Z,21.16
2018-04-12T18:51:26.221Z,21.16
2018-04-12T18:53:52.188Z,21.14
2018-04-12T18:56:18.124Z,21.11
2018-04-12T18:58:44.076Z,21.11
2018-04-12T19:01:15.830Z,21.10
2018-04-12T19:03:41.812Z,21.08
2018-04-12T19:06:07.746Z,21.03
2018-04-12T19:08:33.742Z,20.98
2018-04-12T19:10:59.828Z,20.98
2018-04-12T19:13:25.829Z,20.98
2018-04-12T19:15:51.807Z,20.95
2018-04-12T19:18:17.738Z,20.94
2018-04-12T19:20:43.692Z,20.92
2018-04-12T19:30:45.081Z,20.85
2018-04-12T19:33:11.015Z,20.83
2018-04-12T19:35:36.957Z,20.83
2018-04-12T19:38:02.923Z,20.83
2018-04-12T19:40:29.085Z,20.82
2018-04-12T19:42:55.076Z,20.83
2018-04-12T19:45:21.058Z,20.80
2018-04-12T19:47:47.007Z,20.80
2018-04-12T19:50:13.014Z,20.79
2018-04-12T20:00:15.737Z,20.77
2018-04-12T20:02:41.703Z,20.77
2018-04-12T20:05:07.765Z,20.75
2018-04-12T20:07:33.804Z,20.73
2018-04-12T20:09:59.746Z,20.74
2018-04-12T20:12:25.693Z,20.71
2018-04-12T20:14:51.647Z,20.69
2018-04-12T20:17:17.649Z,20.68
2018-04-12T20:19:43.593Z,20.68
2018-04-12T20:22:09.578Z,20.68
2018-04-12T20:24:35.572Z,20.66
2018-04-12T20:27:01.512Z,20.64
2018-04-12T20:29:27.489Z,20.62
2018-04-12T20:31:53.514Z,20.61
2018-04-12T20:34:19.486Z,20.59
2018-04-12T20:36:45.462Z,20.59
2018-04-12T20:39:11.435Z,20.57
2018-04-12T20:41:37.367Z,20.57
2018-04-12T20:44:03.306Z,20.56
2018-04-12T20:46:29.275Z,20.54
2018-04-12T20:48:55.255Z,20.53
2018-04-12T20:51:21.218Z,20.51
2018-04-12T20:53:47.224Z,20.52
2018-04-12T20:56:13.161Z,20.51
2018-04-12T20:58:39.131Z,20.50
2018-04-12T21:01:05.062Z,20.48
2018-04-12T21:03:31.006Z,20.49
2018-04-12T21:05:56.933Z,20.46
2018-04-12T21:08:22.872Z,20.45
2018-04-12T21:10:48.816Z,20.44
2018-04-12T21:13:15.160Z,20.43
2018-04-12T21:15:41.147Z,20.42
2018-04-12T21:18:07.127Z,20.41
2018-04-12T21:20:33.125Z,20.41
2018-04-12T21:22:59.078Z,20.38
2018-04-12T21:25:25.210Z,20.35
2018-04-12T21:27:51.164Z,20.34
2018-04-12T21:30:17.123Z,20.34
2018-04-12T21:32:43.106Z,20.33
2018-04-12T21:35:09.085Z,20.30
2018-04-12T21:37:35.019Z,20.28
2018-04-12T21:40:00.997Z,20.28
2018-04-12T21:42:26.973Z,20.27
2018-04-12T21:44:52.985Z,20.21
2018-04-12T21:47:18.955Z,20.19
2018-04-12T21:49:44.954Z,20.19
2018-04-12T21:52:10.901Z,20.16
2018-04-12T21:54:36.845Z,20.14
2018-04-12T21:57:02.805Z,20.11
2018-04-12T21:59:28.745Z,20.07
2018-04-12T22:01:54.683Z,20.08
2018-04-12T22:04:20.652Z,20.03
2018-04-12T22:06:46.609Z,20.03
2018-04-12T22:09:12.526Z,20.01
2018-04-12T22:11:38.447Z,20.00
2018-04-12T22:14:04.373Z,19.98
2018-04-12T22:16:30.335Z,19.98
2018-04-12T22:18:56.289Z,19.96
2018-04-12T22:21:22.245Z,19.95
2018-04-12T22:23:48.169Z,19.93
2018-04-12T22:26:14.121Z,19.94
2018-04-12T22:28:40.057Z,19.93
2018-04-12T22:31:06.022Z,19.93
2018-04-12T22:33:32.313Z,19.89
2018-04-12T22:35:58.263Z,19.89
2018-04-12T22:38:24.208Z,19.85
2018-04-12T22:40:50.188Z,19.85
2018-04-12T22:43:16.136Z,19.85
2018-04-12T22:45:42.101Z,19.86
2018-04-12T22:48:08.045Z,19.79
2018-04-12T22:50:34.014Z,19.78
2018-04-12T22:52:59.942Z,19.76
2018-04-12T22:55:25.879Z,19.73
2018-04-12T22:57:51.826Z,19.70
2018-04-12T23:00:17.768Z,19.68
2018-04-12T23:02:43.718Z,19.68
2018-04-12T23:05:09.644Z,19.64
2018-04-12T23:07:35.601Z,19.59
2018-04-12T23:10:01.547Z,19.59
2018-04-12T23:12:27.546Z,19.54
2018-04-12T23:14:53.493Z,19.57
2018-04-12T23:17:19.436Z,19.54
2018-04-12T23:19:45.422Z,19.51
2018-04-12T23:22:11.374Z,19.50
2018-04-12T23:24:37.311Z,19.48
2018-04-12T23:27:03.253Z,19.44
2018-04-12T23:29:29.172Z,19.49
2018-04-12T23:31:55.158Z,19.47
2018-04-12T23:34:21.139Z,19.45
2018-04-12T23:36:47.094Z,19.43
2018-04-12T23:39:13.053Z,19.40
2018-04-12T23:41:39.010Z,19.42
2018-04-12T23:44:04.968Z,19.42
2018-04-12T23:46:30.892Z,19.41
2018-04-12T23:48:56.860Z,19.34
2018-04-12T23:51:22.817Z,19.34
2018-04-12T23:53:48.772Z,19.37
2018-04-12T23:56:14.720Z,19.37
2018-04-12T23:58:40.643Z,19.41
